地図

経路データ

SID SEASON NUMBER BASIN SUBBASIN NAME ISO_TIME NATURE LAT LON WMO_WIND WMO_PRES WMO_AGENCY TRACK_TYPE DIST2LAND LANDFALL IFLAG USA_AGENCY USA_ATCF_ID USA_LAT USA_LON USA_RECORD USA_STATUS USA_WIND USA_PRES USA_SSHS USA_R34_NE USA_R34_SE USA_R34_SW USA_R34_NW USA_R50_NE USA_R50_SE USA_R50_SW USA_R50_NW USA_R64_NE USA_R64_SE USA_R64_SW USA_R64_NW USA_POCI USA_ROCI USA_RMW USA_EYE TOKYO_LAT TOKYO_LON TOKYO_GRADE TOKYO_WIND TOKYO_PRES TOKYO_R50_DIR TOKYO_R50_LONG TOKYO_R50_SHORT TOKYO_R30_DIR TOKYO_R30_LONG TOKYO_R30_SHORT TOKYO_LAND CMA_LAT CMA_LON CMA_CAT CMA_WIND CMA_PRES HKO_LAT HKO_LON HKO_CAT HKO_WIND HKO_PRES NEWDELHI_LAT NEWDELHI_LON NEWDELHI_GRADE NEWDELHI_WIND NEWDELHI_PRES NEWDELHI_CI NEWDELHI_DP NEWDELHI_POCI REUNION_LAT REUNION_LON REUNION_TYPE REUNION_WIND REUNION_PRES REUNION_TNUM REUNION_CI REUNION_RMW REUNION_R34_NE REUNION_R34_SE REUNION_R34_SW REUNION_R34_NW REUNION_R50_NE REUNION_R50_SE REUNION_R50_SW REUNION_R50_NW REUNION_R64_NE REUNION_R64_SE REUNION_R64_SW REUNION_R64_NW BOM_LAT BOM_LON BOM_TYPE BOM_WIND BOM_PRES BOM_TNUM BOM_CI BOM_RMW BOM_R34_NE BOM_R34_SE BOM_R34_SW BOM_R34_NW BOM_R50_NE BOM_R50_SE BOM_R50_SW BOM_R50_NW BOM_R64_NE BOM_R64_SE BOM_R64_SW BOM_R64_NW BOM_ROCI BOM_POCI BOM_EYE BOM_POS_METHOD BOM_PRES_METHOD NADI_LAT NADI_LON NADI_CAT NADI_WIND NADI_PRES WELLINGTON_LAT WELLINGTON_LON WELLINGTON_WIND WELLINGTON_PRES DS824_LAT DS824_LON DS824_STAGE DS824_WIND DS824_PRES TD9636_LAT TD9636_LON TD9636_STAGE TD9636_WIND TD9636_PRES TD9635_LAT TD9635_LON TD9635_WIND TD9635_PRES TD9635_ROCI NEUMANN_LAT NEUMANN_LON NEUMANN_CLASS NEUMANN_WIND NEUMANN_PRES MLC_LAT MLC_LON MLC_CLASS MLC_WIND MLC_PRES USA_GUST BOM_GUST BOM_GUST_PER REUNION_GUST REUNION_GUST_PER USA_SEAHGT USA_SEARAD_NE USA_SEARAD_SE USA_SEARAD_SW USA_SEARAD_NW STORM_SPEED STORM_DIR
1996284N09158 1996 96 WP MM NOT_NAMED 1996-10-10 00:00:00 NR 8.90000 158.400 main 1537 1510 O_____________ jtwc_wp WP311996 8.90000 158.400 20 -1 11 274
1996284N09158 1996 96 WP MM NOT_NAMED 1996-10-10 03:00:00 NR 8.94013 157.855 main 1510 1490 P_____________ WP311996 8.94013 157.855 20 -1 11 275
1996284N09158 1996 96 WP MM NOT_NAMED 1996-10-10 06:00:00 NR 9.00000 157.300 main 1490 1475 O_____________ jtwc_wp WP311996 9.00000 157.300 20 -1 11 278
1996284N09158 1996 96 WP MM NOT_NAMED 1996-10-10 09:00:00 NR 9.09248 156.735 main 1470 1457 P_____________ WP311996 9.09248 156.735 20 -1 11 280
1996284N09158 1996 96 WP MM NOT_NAMED 1996-10-10 12:00:00 NR 9.20000 156.200 main 1457 1448 O_____________ jtwc_wp WP311996 9.20000 156.200 20 -1 10 281
1996284N09158 1996 96 WP MM NOT_NAMED 1996-10-10 15:00:00 NR 9.29238 155.735 main 1446 1438 P_____________ WP311996 9.29238 155.735 20 -1 9 283
1996284N09158 1996 96 WP MM NOT_NAMED 1996-10-10 18:00:00 NR 9.40000 155.300 main 1440 1433 O_____________ jtwc_wp WP311996 9.40000 155.300 20 -1 9 285
1996284N09158 1996 96 WP MM NOT_NAMED 1996-10-10 21:00:00 NR 9.52752 154.827 main 1433 1433 P_____________ WP311996 9.52752 154.827 20 -1 9 289
1996284N09158 1996 96 WP MM NOT_NAMED 1996-10-11 00:00:00 NR 9.70000 154.400 main 1442 1439 O_____________ jtwc_wp WP311996 9.70000 154.400 20 -1 8 298
1996284N09158 1996 96 WP MM NOT_NAMED 1996-10-11 03:00:00 NR 9.91236 154.092 main 1455 1455 P_____________ WP311996 9.91236 154.092 20 -1 8 310
1996284N09158 1996 96 WP MM NOT_NAMED 1996-10-11 06:00:00 NR 10.2000 153.800 main 1480 1480 O_____________ jtwc_wp WP311996 10.2000 153.800 20 -1 10 315
1996284N09158 1996 96 WP MM NOT_NAMED 1996-10-11 09:00:00 NR 10.5850 153.408 main 1515 1515 P_____________ WP311996 10.5850 153.408 20 -1 11 315
1996284N09158 1996 96 WP MM NOT_NAMED 1996-10-11 12:00:00 NR 11.0000 153.000 main 1552 1552 O_____________ jtwc_wp WP311996 11.0000 153.000 20 -1 11 316
1996284N09158 1996 96 WP MM NOT_NAMED 1996-10-11 15:00:00 NR 11.3725 152.627 main 1591 1591 P_____________ WP311996 11.3725 152.627 20 -1 10 316
1996284N09158 1996 96 WP MM NOT_NAMED 1996-10-11 18:00:00 NR 11.7000 152.300 main 1620 1620 O_____________ jtwc_wp WP311996 11.7000 152.300 20 -1 8 315
1996284N09158 1996 96 WP MM NOT_NAMED 1996-10-11 21:00:00 NR 11.9574 152.027 main 1651 1650 P_____________ WP311996 11.9574 152.027 20 -1 7 316
1996284N09158 1996 96 WP MM NOT_NAMED 1996-10-12 00:00:00 NR 12.2000 151.800 main 1672 1672 O_____________ jtwc_wp WP311996 12.2000 151.800 20 -1 7 321
1996284N09158 1996 96 WP MM NOT_NAMED 1996-10-12 03:00:00 NR 12.4925 151.585 main 1700 1700 P_____________ WP311996 12.4925 151.585 20 -1 7 327
1996284N09158 1996 96 WP MM NOT_NAMED 1996-10-12 06:00:00 NR 12.8000 151.400 main 1726 1726 O_____________ jtwc_wp WP311996 12.8000 151.400 20 -1 7 331
1996284N09158 1996 96 WP MM NOT_NAMED 1996-10-12 09:00:00 NR 13.1000 151.242 main 1753 1753 P_____________ WP311996 13.1000 151.242 20 -1 7 334
1996284N09158 1996 96 WP MM NOT_NAMED 1996-10-12 12:00:00 NR 13.4000 151.100 main 1783 1783 O_____________ jtwc_wp WP311996 13.4000 151.100 20 -1 7 335
1996284N09158 1996 96 WP MM NOT_NAMED 1996-10-12 15:00:00 NR 13.7150 150.950 main 1814 1811 P_____________ WP311996 13.7150 150.950 20 -1 7 334
1996284N09158 1996 96 WP MM NOT_NAMED 1996-10-12 18:00:00 NR 14.0000 150.800 main 1842 1842 O_____________ jtwc_wp WP311996 14.0000 150.800 20 -1 6 332
1996284N09158 1996 96 WP MM NOT_NAMED 1996-10-12 21:00:00 NR 14.2149 150.680 main 1862 1862 P_____________ WP311996 14.2149 150.680 22 -1 5 324
1996284N09158 1996 96 WP MM NOT_NAMED 1996-10-13 00:00:00 NR 14.4000 150.500 main 1879 1877 O_____________ jtwc_wp WP311996 14.4000 150.500 25 -1 6 309
1996284N09158 1996 96 WP MM NOT_NAMED 1996-10-13 03:00:00 NR 14.6000 150.188 main 1896 1894 P_____________ WP311996 14.6000 150.188 25 -1 8 301
1996284N09158 1996 96 WP MM NOT_NAMED 1996-10-13 06:00:00 NR 14.8000 149.800 main 1911 1910 O_____________ jtwc_wp WP311996 14.8000 149.800 25 -1 9 298
1996284N09158 1996 96 WP MM NOT_NAMED 1996-10-13 09:00:00 NR 15.0000 149.400 main 1928 1927 P_____________ WP311996 15.0000 149.400 25 -1 9 297
1996284N09158 1996 96 WP MM NOT_NAMED 1996-10-13 12:00:00 NR 15.2000 149.000 main 1946 1945 O_____________ jtwc_wp WP311996 15.2000 149.000 25 -1 8 299
1996284N09158 1996 96 WP MM NOT_NAMED 1996-10-13 15:00:00 NR 15.3999 148.642 main 1964 1964 P_____________ WP311996 15.3999 148.642 25 -1 8 301
1996284N09158 1996 96 WP MM NOT_NAMED 1996-10-13 18:00:00 NR 15.6000 148.300 main 1985 1984 O_____________ jtwc_wp WP311996 15.6000 148.300 25 -1 8 301
1996284N09158 1996 96 WP MM NOT_NAMED 1996-10-13 21:00:00 NR 15.7924 147.950 main 2005 2005 P_____________ WP311996 15.7924 147.950 25 -1 8 301
1996284N09158 1996 96 WP MM NOT_NAMED 1996-10-14 00:00:00 NR 16.0000 147.600 main 2027 2027 O_____________ jtwc_wp WP311996 16.0000 147.600 25 -1 8 304
1996284N09158 1996 96 WP MM NOT_NAMED 1996-10-14 03:00:00 NR 16.2499 147.250 main 2049 2049 P_____________ WP311996 16.2499 147.250 25 -1 8 307
1996284N09158 1996 96 WP MM NOT_NAMED 1996-10-14 06:00:00 NR 16.5000 146.900 main 2083 2083 O_____________ jtwc_wp WP311996 16.5000 146.900 25 -1 8 304
1996284N09158 1996 96 WP MM NOT_NAMED 1996-10-14 09:00:00 NR 16.6924 146.565 main 2105 2105 P_____________ WP311996 16.6924 146.565 25 -1 8 301
1996284N09158 1996 96 WP MM NOT_NAMED 1996-10-14 12:00:00 NR 16.9000 146.200 main 2105 2061 O_____________ jtwc_wp WP311996 16.9000 146.200 25 -1 9 305
1996284N09158 1996 96 WP MM NOT_NAMED 1996-10-14 15:00:00 NR 17.2299 145.773 main 2061 2013 P_____________ WP311996 17.2299 145.773 25 -1 11 305
1996284N09158 1996 96 WP MM NOT_NAMED 1996-10-14 18:00:00 NR 17.5000 145.300 main 2013 1990 O_____________ jtwc_wp WP311996 17.5000 145.300 25 -1 10 287
1996284N09158 1996 96 WP MM NOT_NAMED 1996-10-14 21:00:00 NR 17.5225 144.792 main 1990 1968 P_____________ WP311996 17.5225 144.792 25 -1 10 270
1996284N09158 1996 96 WP MM NOT_NAMED 1996-10-15 00:00:00 NR 17.5000 144.300 main 1968 1941 O_____________ jtwc_wp WP311996 17.5000 144.300 25 -1 9 274
1996284N09158 1996 96 WP MM NOT_NAMED 1996-10-15 03:00:00 NR 17.5823 143.885 main 1941 1904 P_____________ WP311996 17.5823 143.885 25 -1 8 291
1996284N09158 1996 96 WP MM NOT_NAMED 1996-10-15 06:00:00 NR 17.8000 143.500 main 1904 1846 O_____________ jtwc_wp WP311996 17.8000 143.500 25 -1 10 309
1996284N09158 1996 96 WP MM NOT_NAMED 1996-10-15 09:00:00 NR 18.2126 143.070 main 1846 1779 P_____________ WP311996 18.2126 143.070 25 -1 12 320
1996284N09158 1996 96 WP MM NOT_NAMED 1996-10-15 12:00:00 NR 18.7000 142.700 main 1779 1729 O_____________ jtwc_wp WP311996 18.7000 142.700 25 -1 11 328
1996284N09158 1996 96 WP MM NOT_NAMED 1996-10-15 15:00:00 NR 19.1148 142.485 main 1729 1680 P_____________ WP311996 19.1148 142.485 25 -1 9 335
1996284N09158 1996 96 WP MM NOT_NAMED 1996-10-15 18:00:00 NR 19.5000 142.300 main 1680 1638 O_____________ jtwc_wp WP311996 19.5000 142.300 25 -1 9 329
1996284N09158 1996 96 WP MM NOT_NAMED 1996-10-15 21:00:00 NR 19.8650 142.008 main 1627 1585 P_____________ WP311996 19.8650 142.008 25 -1 9 321
1996284N09158 1996 96 WP MM NOT_NAMED 1996-10-16 00:00:00 NR 20.2000 141.700 main 1585 1542 O_____________ jtwc_wp WP311996 20.2000 141.700 25 -1 8 319
1996284N09158 1996 96 WP MM NOT_NAMED 1996-10-16 03:00:00 NR 20.5000 141.427 main 1542 1504 P_____________ WP311996 20.5000 141.427 25 -1 8 322
1996284N09158 1996 96 WP MM NOT_NAMED 1996-10-16 06:00:00 NR 20.8000 141.200 main 1504 1465 O_____________ jtwc_wp WP311996 20.8000 141.200 25 -1 7 329
1996284N09158 1996 96 WP MM NOT_NAMED 1996-10-16 09:00:00 NR 21.1275 141.027 main 1465 1420 P_____________ WP311996 21.1275 141.027 25 -1 8 338
1996284N09158 1996 96 WP MM NOT_NAMED 1996-10-16 12:00:00 NR 21.5000 140.900 main 1420 1374 O_____________ jtwc_wp WP311996 21.5000 140.900 25 -1 8 345
1996284N09158 1996 96 WP MM NOT_NAMED 1996-10-16 15:00:00 NR 21.9425 140.792 main 1374 1318 P_____________ WP311996 21.9425 140.792 25 -1 9 348
1996284N09158 1996 96 WP MM NOT_NAMED 1996-10-16 18:00:00 NR 22.4000 140.700 main 1318 1273 O_____________ jtwc_wp WP311996 22.4000 140.700 25 -1 9 349
1996284N09158 1996 96 WP MM NOT_NAMED 1996-10-16 21:00:00 NR 22.8225 140.600 main 1273 1227 P_____________ WP311996 22.8225 140.600 25 -1 8 347
1996284N09158 1996 96 WP MM NOT_NAMED 1996-10-17 00:00:00 NR 23.2000 140.500 main 1227 1192 O_____________ jtwc_wp WP311996 23.2000 140.500 25 -1 7 347
1996284N09158 1996 96 WP MM NOT_NAMED 1996-10-17 03:00:00 NR 23.5224 140.422 main 1192 1157 P_____________ WP311996 23.5224 140.422 25 -1 6 343
1996284N09158 1996 96 WP MM NOT_NAMED 1996-10-17 06:00:00 NR 23.8000 140.300 main 1157 1119 O_____________ jtwc_wp WP311996 23.8000 140.300 25 -1 6 330
1996284N09158 1996 96 WP MM NOT_NAMED 1996-10-17 09:00:00 NR 24.0650 140.080 main 1119 1087 P_____________ WP311996 24.0650 140.080 25 -1 7 318
1996284N09158 1996 96 WP MM NOT_NAMED 1996-10-17 12:00:00 NR 24.3000 139.800 main 1087 1066 O_____________ jtwc_wp WP311996 24.3000 139.800 25 -1 7 306
1996284N09158 1996 96 WP MM NOT_NAMED 1996-10-17 15:00:00 NR 24.4550 139.500 main 1056 1025 P_____________ WP311996 24.4550 139.500 25 -1 7 306
1996284N09158 1996 96 WP MM NOT_NAMED 1996-10-17 18:00:00 NR 24.7000 139.200 main 1025 963 O_____________ jtwc_wp WP311996 24.7000 139.200 25 -1 9 324
1996284N09158 1996 96 WP MM NOT_NAMED 1996-10-17 21:00:00 NR 25.1900 138.920 main 963 893 P_____________ WP311996 25.1900 138.920 22 -1 12 338
1996284N09158 1996 96 WP MM NOT_NAMED 1996-10-18 00:00:00 NR 25.8000 138.700 main 893 826 O_____________ jtwc_wp WP311996 25.8000 138.700 20 -1 13 346
1996284N09158 1996 96 WP MM NOT_NAMED 1996-10-18 03:00:00 NR 26.4075 138.572 main 826 759 P_____________ WP311996 26.4075 138.572 17 -1 12 351
1996284N09158 1996 96 WP MM NOT_NAMED 1996-10-18 06:00:00 NR 27.0000 138.500 main 759 O_____________ jtwc_wp WP311996 27.0000 138.500 15 -1 12 354

デジタル台風データ・検索

IBTrACS Databaseについて

本データベースは、米国NOAAが公開する1842年以降の世界の熱帯低気圧のベストトラックデータアーカイブInternational Best Track Archive for Climate Stewardship (IBTrACS)を、ウェブで閲覧しやすい形式に変換したものです。

最終更新日:2021-11-26